sensor_id;sensor_type;location;lat;lon;timestamp;temperature;humidity
56240;DHT22;42154;51.992;5.896;2024-01-25T00:01:12;8.50;99.90
56240;DHT22;42154;51.992;5.896;2024-01-25T00:03:38;8.40;99.90
56240;DHT22;42154;51.992;5.896;2024-01-25T00:06:07;8.40;99.90
56240;DHT22;42154;51.992;5.896;2024-01-25T00:08:33;8.30;99.90
56240;DHT22;42154;51.992;5.896;2024-01-25T00:11:01;8.30;99.90
56240;DHT22;42154;51.992;5.896;2024-01-25T00:13:27;8.20;99.90
56240;DHT22;42154;51.992;5.896;2024-01-25T00:15:53;8.20;99.90
56240;DHT22;42154;51.992;5.896;2024-01-25T00:18:19;8.10;99.90
56240;DHT22;42154;51.992;5.896;2024-01-25T00:20:44;8.10;99.90
56240;DHT22;42154;51.992;5.896;2024-01-25T00:23:10;8.10;99.90
56240;DHT22;42154;51.992;5.896;2024-01-25T00:25:36;8.10;99.90
56240;DHT22;42154;51.992;5.896;2024-01-25T00:28:02;8.00;99.90
56240;DHT22;42154;51.992;5.896;2024-01-25T00:30:28;8.10;99.90
56240;DHT22;42154;51.992;5.896;2024-01-25T00:32:53;8.00;99.90
56240;DHT22;42154;51.992;5.896;2024-01-25T00:35:19;7.90;99.90
56240;DHT22;42154;51.992;5.896;2024-01-25T00:37:45;7.90;99.90
56240;DHT22;42154;51.992;5.896;2024-01-25T00:40:11;7.90;99.90
56240;DHT22;42154;51.992;5.896;2024-01-25T00:42:43;7.90;99.90
56240;DHT22;42154;51.992;5.896;2024-01-25T00:45:10;7.90;99.90
56240;DHT22;42154;51.992;5.896;2024-01-25T00:47:37;7.90;99.90
56240;DHT22;42154;51.992;5.896;2024-01-25T00:50:04;7.80;99.90
56240;DHT22;42154;51.992;5.896;2024-01-25T00:52:30;7.80;99.90
56240;DHT22;42154;51.992;5.896;2024-01-25T00:54:56;7.70;99.90
56240;DHT22;42154;51.992;5.896;2024-01-25T00:57:22;7.80;99.90
56240;DHT22;42154;51.992;5.896;2024-01-25T00:59:48;7.70;99.90
56240;DHT22;42154;51.992;5.896;2024-01-25T01:02:14;7.70;99.90
56240;DHT22;42154;51.992;5.896;2024-01-25T01:04:40;7.70;99.90
56240;DHT22;42154;51.992;5.896;2024-01-25T01:07:06;7.70;99.90
56240;DHT22;42154;51.992;5.896;2024-01-25T01:09:32;7.70;99.90
56240;DHT22;42154;51.992;5.896;2024-01-25T01:11:59;7.70;99.90
56240;DHT22;42154;51.992;5.896;2024-01-25T01:14:24;7.70;99.90
56240;DHT22;42154;51.992;5.896;2024-01-25T01:16:50;7.60;99.90
56240;DHT22;42154;51.992;5.896;2024-01-25T01:19:16;7.60;99.90
56240;DHT22;42154;51.992;5.896;2024-01-25T01:21:42;7.60;99.90
56240;DHT22;42154;51.992;5.896;2024-01-25T01:24:12;7.50;99.90
56240;DHT22;42154;51.992;5.896;2024-01-25T01:26:38;7.50;99.90
56240;DHT22;42154;51.992;5.896;2024-01-25T01:29:04;7.50;99.90
56240;DHT22;42154;51.992;5.896;2024-01-25T01:31:30;7.50;99.90
56240;DHT22;42154;51.992;5.896;2024-01-25T01:33:56;7.50;99.90
56240;DHT22;42154;51.992;5.896;2024-01-25T01:36:23;7.50;99.90
56240;DHT22;42154;51.992;5.896;2024-01-25T01:38:49;7.40;99.90
56240;DHT22;42154;51.992;5.896;2024-01-25T01:41:15;7.40;99.90
56240;DHT22;42154;51.992;5.896;2024-01-25T01:43:41;7.40;99.90
56240;DHT22;42154;51.992;5.896;2024-01-25T01:46:12;7.30;99.90
56240;DHT22;42154;51.992;5.896;2024-01-25T01:48:41;7.30;99.90
56240;DHT22;42154;51.992;5.896;2024-01-25T01:51:08;7.20;99.90
56240;DHT22;42154;51.992;5.896;2024-01-25T01:53:35;7.10;99.90
56240;DHT22;42154;51.992;5.896;2024-01-25T01:56:01;7.10;99.90
56240;DHT22;42154;51.992;5.896;2024-01-25T01:58:27;7.00;99.90
56240;DHT22;42154;51.992;5.896;2024-01-25T02:00:55;7.00;99.90
56240;DHT22;42154;51.992;5.896;2024-01-25T02:03:21;6.90;99.90
56240;DHT22;42154;51.992;5.896;2024-01-25T02:05:47;6.90;99.90
56240;DHT22;42154;51.992;5.896;2024-01-25T02:08:13;6.90;99.90
56240;DHT22;42154;51.992;5.896;2024-01-25T02:10:39;6.80;99.90
56240;DHT22;42154;51.992;5.896;2024-01-25T02:13:05;6.80;99.90
56240;DHT22;42154;51.992;5.896;2024-01-25T02:15:31;6.80;99.90
56240;DHT22;42154;51.992;5.896;2024-01-25T02:17:56;6.70;99.90
56240;DHT22;42154;51.992;5.896;2024-01-25T02:20:22;6.70;99.90
56240;DHT22;42154;51.992;5.896;2024-01-25T02:22:48;6.70;99.90
56240;DHT22;42154;51.992;5.896;2024-01-25T02:25:14;6.70;99.90
56240;DHT22;42154;51.992;5.896;2024-01-25T02:27:39;6.60;99.90
56240;DHT22;42154;51.992;5.896;2024-01-25T02:30:06;6.70;99.90
56240;DHT22;42154;51.992;5.896;2024-01-25T02:32:32;6.60;99.90
56240;DHT22;42154;51.992;5.896;2024-01-25T02:34:58;6.60;99.90
56240;DHT22;42154;51.992;5.896;2024-01-25T02:37:24;6.60;99.90
56240;DHT22;42154;51.992;5.896;2024-01-25T02:39:50;6.50;99.90
56240;DHT22;42154;51.992;5.896;2024-01-25T02:42:16;6.50;99.90
56240;DHT22;42154;51.992;5.896;2024-01-25T02:44:43;6.50;99.90
56240;DHT22;42154;51.992;5.896;2024-01-25T02:47:09;6.50;99.90
56240;DHT22;42154;51.992;5.896;2024-01-25T02:49:34;6.40;99.90
56240;DHT22;42154;51.992;5.896;2024-01-25T02:52:00;6.40;99.90
56240;DHT22;42154;51.992;5.896;2024-01-25T02:54:26;6.40;99.90
56240;DHT22;42154;51.992;5.896;2024-01-25T02:56:52;6.40;99.90
56240;DHT22;42154;51.992;5.896;2024-01-25T02:59:18;6.40;99.90
56240;DHT22;42154;51.992;5.896;2024-01-25T03:01:44;6.30;99.90
56240;DHT22;42154;51.992;5.896;2024-01-25T03:04:10;6.30;99.90
56240;DHT22;42154;51.992;5.896;2024-01-25T03:06:36;6.20;99.90
56240;DHT22;42154;51.992;5.896;2024-01-25T03:09:02;6.20;99.90
56240;DHT22;42154;51.992;5.896;2024-01-25T03:11:32;6.20;99.90
56240;DHT22;42154;51.992;5.896;2024-01-25T03:13:57;6.10;99.90
56240;DHT22;42154;51.992;5.896;2024-01-25T03:16:23;6.10;99.90
56240;DHT22;42154;51.992;5.896;2024-01-25T03:18:49;6.10;99.90
56240;DHT22;42154;51.992;5.896;2024-01-25T03:21:15;6.10;99.90
56240;DHT22;42154;51.992;5.896;2024-01-25T03:23:41;6.10;99.90
56240;DHT22;42154;51.992;5.896;2024-01-25T03:26:07;6.10;99.90
56240;DHT22;42154;51.992;5.896;2024-01-25T03:28:34;6.10;99.90
56240;DHT22;42154;51.992;5.896;2024-01-25T03:31:01;6.10;99.90
56240;DHT22;42154;51.992;5.896;2024-01-25T03:33:27;6.10;99.90
56240;DHT22;42154;51.992;5.896;2024-01-25T03:35:54;6.00;99.90
56240;DHT22;42154;51.992;5.896;2024-01-25T03:38:20;6.00;99.90
56240;DHT22;42154;51.992;5.896;2024-01-25T03:40:46;6.00;99.90
56240;DHT22;42154;51.992;5.896;2024-01-25T03:43:12;6.00;99.90
56240;DHT22;42154;51.992;5.896;2024-01-25T03:45:37;6.00;99.90
56240;DHT22;42154;51.992;5.896;2024-01-25T03:48:03;6.00;99.90
56240;DHT22;42154;51.992;5.896;2024-01-25T03:50:29;6.10;99.90
56240;DHT22;42154;51.992;5.896;2024-01-25T03:52:55;6.00;99.90
56240;DHT22;42154;51.992;5.896;2024-01-25T03:55:20;6.10;99.90
56240;DHT22;42154;51.992;5.896;2024-01-25T03:57:46;6.00;99.90
56240;DHT22;42154;51.992;5.896;2024-01-25T04:00:12;6.10;99.90
56240;DHT22;42154;51.992;5.896;2024-01-25T04:02:38;6.00;99.90
56240;DHT22;42154;51.992;5.896;2024-01-25T04:05:04;6.00;99.90
56240;DHT22;42154;51.992;5.896;2024-01-25T04:07:30;6.10;99.90
56240;DHT22;42154;51.992;5.896;2024-01-25T04:09:56;6.00;99.90
56240;DHT22;42154;51.992;5.896;2024-01-25T04:12:21;6.00;99.90
56240;DHT22;42154;51.992;5.896;2024-01-25T04:14:47;6.00;99.90
56240;DHT22;42154;51.992;5.896;2024-01-25T04:17:13;6.00;99.90
56240;DHT22;42154;51.992;5.896;2024-01-25T04:19:38;6.00;99.90
56240;DHT22;42154;51.992;5.896;2024-01-25T04:22:04;6.00;99.90
56240;DHT22;42154;51.992;5.896;2024-01-25T04:24:30;6.00;99.90
56240;DHT22;42154;51.992;5.896;2024-01-25T04:26:56;6.00;99.90
56240;DHT22;42154;51.992;5.896;2024-01-25T04:29:22;5.90;99.90
56240;DHT22;42154;51.992;5.896;2024-01-25T04:31:48;5.90;99.90
56240;DHT22;42154;51.992;5.896;2024-01-25T04:34:14;6.00;99.90
56240;DHT22;42154;51.992;5.896;2024-01-25T04:36:40;5.90;99.90
56240;DHT22;42154;51.992;5.896;2024-01-25T04:39:06;5.90;99.90
56240;DHT22;42154;51.992;5.896;2024-01-25T04:41:32;5.90;99.90
56240;DHT22;42154;51.992;5.896;2024-01-25T04:43:57;5.90;99.90
56240;DHT22;42154;51.992;5.896;2024-01-25T04:46:23;5.80;99.90
56240;DHT22;42154;51.992;5.896;2024-01-25T04:48:49;5.80;99.90
56240;DHT22;42154;51.992;5.896;2024-01-25T04:51:16;5.70;99.90
56240;DHT22;42154;51.992;5.896;2024-01-25T04:53:43;5.70;99.90
56240;DHT22;42154;51.992;5.896;2024-01-25T04:56:09;5.60;99.90
56240;DHT22;42154;51.992;5.896;2024-01-25T04:58:35;5.60;99.90
56240;DHT22;42154;51.992;5.896;2024-01-25T05:01:00;5.50;99.90
56240;DHT22;42154;51.992;5.896;2024-01-25T05:03:26;5.50;99.90
56240;DHT22;42154;51.992;5.896;2024-01-25T05:05:52;5.50;99.90
56240;DHT22;42154;51.992;5.896;2024-01-25T05:08:18;5.40;99.90
56240;DHT22;42154;51.992;5.896;2024-01-25T05:10:44;5.40;99.90
56240;DHT22;42154;51.992;5.896;2024-01-25T05:13:10;5.30;99.90
56240;DHT22;42154;51.992;5.896;2024-01-25T05:15:36;5.30;99.90
56240;DHT22;42154;51.992;5.896;2024-01-25T05:18:02;5.20;99.90
56240;DHT22;42154;51.992;5.896;2024-01-25T05:20:28;5.20;99.90
56240;DHT22;42154;51.992;5.896;2024-01-25T05:22:58;5.20;99.90
56240;DHT22;42154;51.992;5.896;2024-01-25T05:25:25;5.10;99.90
56240;DHT22;42154;51.992;5.896;2024-01-25T05:27:52;5.10;99.90
56240;DHT22;42154;51.992;5.896;2024-01-25T05:30:18;5.00;99.90
56240;DHT22;42154;51.992;5.896;2024-01-25T05:32:44;4.90;99.90
56240;DHT22;42154;51.992;5.896;2024-01-25T05:35:11;4.90;99.90
56240;DHT22;42154;51.992;5.896;2024-01-25T05:37:37;4.90;99.90
56240;DHT22;42154;51.992;5.896;2024-01-25T05:40:03;4.90;99.90
56240;DHT22;42154;51.992;5.896;2024-01-25T05:42:29;4.90;99.90
56240;DHT22;42154;51.992;5.896;2024-01-25T05:44:54;4.80;99.90
56240;DHT22;42154;51.992;5.896;2024-01-25T05:47:20;4.90;99.90
56240;DHT22;42154;51.992;5.896;2024-01-25T05:49:46;4.80;99.90
56240;DHT22;42154;51.992;5.896;2024-01-25T05:52:13;4.80;99.90
56240;DHT22;42154;51.992;5.896;2024-01-25T05:54:39;4.80;99.90
56240;DHT22;42154;51.992;5.896;2024-01-25T05:57:05;4.70;99.90
56240;DHT22;42154;51.992;5.896;2024-01-25T05:59:31;4.80;99.90
56240;DHT22;42154;51.992;5.896;2024-01-25T06:01:57;4.70;99.90
56240;DHT22;42154;51.992;5.896;2024-01-25T06:04:22;4.60;99.90
56240;DHT22;42154;51.992;5.896;2024-01-25T06:06:48;4.60;99.90
56240;DHT22;42154;51.992;5.896;2024-01-25T06:09:14;4.60;99.90
56240;DHT22;42154;51.992;5.896;2024-01-25T06:11:42;4.50;99.90
56240;DHT22;42154;51.992;5.896;2024-01-25T06:14:08;4.50;99.90
56240;DHT22;42154;51.992;5.896;2024-01-25T06:16:34;4.50;99.90
56240;DHT22;42154;51.992;5.896;2024-01-25T06:19:01;4.50;99.90
56240;DHT22;42154;51.992;5.896;2024-01-25T06:21:27;4.50;99.90
56240;DHT22;42154;51.992;5.896;2024-01-25T06:23:53;4.50;99.90
56240;DHT22;42154;51.992;5.896;2024-01-25T06:26:19;4.50;99.90
56240;DHT22;42154;51.992;5.896;2024-01-25T06:28:45;4.50;99.90
56240;DHT22;42154;51.992;5.896;2024-01-25T06:31:11;4.50;99.90
56240;DHT22;42154;51.992;5.896;2024-01-25T06:33:36;4.50;99.90
56240;DHT22;42154;51.992;5.896;2024-01-25T06:36:02;4.40;99.90
56240;DHT22;42154;51.992;5.896;2024-01-25T06:38:28;4.40;99.90
56240;DHT22;42154;51.992;5.896;2024-01-25T06:40:53;4.40;99.90
56240;DHT22;42154;51.992;5.896;2024-01-25T06:43:19;4.30;99.90
56240;DHT22;42154;51.992;5.896;2024-01-25T06:45:45;4.40;99.90
56240;DHT22;42154;51.992;5.896;2024-01-25T06:48:11;4.40;99.90
56240;DHT22;42154;51.992;5.896;2024-01-25T06:50:36;4.30;99.90
56240;DHT22;42154;51.992;5.896;2024-01-25T06:53:03;4.40;99.90
56240;DHT22;42154;51.992;5.896;2024-01-25T06:55:29;4.30;99.90
56240;DHT22;42154;51.992;5.896;2024-01-25T06:57:55;4.30;99.90
56240;DHT22;42154;51.992;5.896;2024-01-25T07:00:21;4.30;99.90
56240;DHT22;42154;51.992;5.896;2024-01-25T07:02:47;4.30;99.90
56240;DHT22;42154;51.992;5.896;2024-01-25T07:05:13;4.30;99.90
56240;DHT22;42154;51.992;5.896;2024-01-25T07:07:39;4.30;99.90
56240;DHT22;42154;51.992;5.896;2024-01-25T07:10:06;4.20;99.90
56240;DHT22;42154;51.992;5.896;2024-01-25T07:12:32;4.20;99.90
56240;DHT22;42154;51.992;5.896;2024-01-25T07:14:58;4.30;99.90
56240;DHT22;42154;51.992;5.896;2024-01-25T07:17:24;4.20;99.90
56240;DHT22;42154;51.992;5.896;2024-01-25T07:19:49;4.20;99.90
56240;DHT22;42154;51.992;5.896;2024-01-25T07:22:15;4.30;99.90
56240;DHT22;42154;51.992;5.896;2024-01-25T07:24:42;4.30;99.90
56240;DHT22;42154;51.992;5.896;2024-01-25T07:27:08;4.30;99.90
56240;DHT22;42154;51.992;5.896;2024-01-25T07:29:36;4.30;99.90
56240;DHT22;42154;51.992;5.896;2024-01-25T07:32:02;4.30;99.90
56240;DHT22;42154;51.992;5.896;2024-01-25T07:34:28;4.30;99.90
56240;DHT22;42154;51.992;5.896;2024-01-25T07:36:54;4.30;99.90
56240;DHT22;42154;51.992;5.896;2024-01-25T07:39:20;4.30;99.90
56240;DHT22;42154;51.992;5.896;2024-01-25T07:41:46;4.30;99.90
56240;DHT22;42154;51.992;5.896;2024-01-25T07:44:12;4.40;99.90
56240;DHT22;42154;51.992;5.896;2024-01-25T07:46:38;4.40;99.90
56240;DHT22;42154;51.992;5.896;2024-01-25T07:49:05;4.50;99.90
56240;DHT22;42154;51.992;5.896;2024-01-25T07:51:30;4.50;99.90
56240;DHT22;42154;51.992;5.896;2024-01-25T07:53:56;4.50;99.90
56240;DHT22;42154;51.992;5.896;2024-01-25T07:56:22;4.50;99.90
56240;DHT22;42154;51.992;5.896;2024-01-25T07:58:50;4.50;99.90
56240;DHT22;42154;51.992;5.896;2024-01-25T08:01:20;4.50;99.90
56240;DHT22;42154;51.992;5.896;2024-01-25T08:03:46;4.50;99.90
56240;DHT22;42154;51.992;5.896;2024-01-25T08:06:12;4.50;99.90
56240;DHT22;42154;51.992;5.896;2024-01-25T08:08:38;4.50;99.90
56240;DHT22;42154;51.992;5.896;2024-01-25T08:11:04;4.50;99.90
56240;DHT22;42154;51.992;5.896;2024-01-25T08:13:31;4.50;99.90
56240;DHT22;42154;51.992;5.896;2024-01-25T08:15:57;4.60;99.90
56240;DHT22;42154;51.992;5.896;2024-01-25T08:18:23;4.60;99.90
56240;DHT22;42154;51.992;5.896;2024-01-25T08:20:49;4.60;99.90
56240;DHT22;42154;51.992;5.896;2024-01-25T08:23:16;4.60;99.90
56240;DHT22;42154;51.992;5.896;2024-01-25T08:25:42;4.60;99.90
56240;DHT22;42154;51.992;5.896;2024-01-25T08:28:08;4.60;99.90
56240;DHT22;42154;51.992;5.896;2024-01-25T08:30:34;4.60;99.90
56240;DHT22;42154;51.992;5.896;2024-01-25T08:32:59;4.70;99.90
56240;DHT22;42154;51.992;5.896;2024-01-25T08:35:25;4.70;99.90
56240;DHT22;42154;51.992;5.896;2024-01-25T08:37:51;4.70;99.90
56240;DHT22;42154;51.992;5.896;2024-01-25T08:40:17;4.70;99.90
56240;DHT22;42154;51.992;5.896;2024-01-25T08:42:43;4.80;99.90
56240;DHT22;42154;51.992;5.896;2024-01-25T08:45:09;4.80;99.90
56240;DHT22;42154;51.992;5.896;2024-01-25T08:47:35;4.70;99.90
56240;DHT22;42154;51.992;5.896;2024-01-25T08:50:01;4.70;99.90
56240;DHT22;42154;51.992;5.896;2024-01-25T08:52:27;4.80;99.90
56240;DHT22;42154;51.992;5.896;2024-01-25T08:54:53;4.80;99.90
56240;DHT22;42154;51.992;5.896;2024-01-25T08:57:19;4.90;99.90
56240;DHT22;42154;51.992;5.896;2024-01-25T08:59:44;5.00;99.90
56240;DHT22;42154;51.992;5.896;2024-01-25T09:02:10;5.10;99.90
56240;DHT22;42154;51.992;5.896;2024-01-25T09:04:36;5.10;99.90
56240;DHT22;42154;51.992;5.896;2024-01-25T09:07:03;5.20;99.90
56240;DHT22;42154;51.992;5.896;2024-01-25T09:09:28;5.30;99.90
56240;DHT22;42154;51.992;5.896;2024-01-25T09:11:54;5.40;99.90
56240;DHT22;42154;51.992;5.896;2024-01-25T09:14:20;5.40;99.90
56240;DHT22;42154;51.992;5.896;2024-01-25T09:16:46;5.40;99.90
56240;DHT22;42154;51.992;5.896;2024-01-25T09:19:12;5.50;99.90
56240;DHT22;42154;51.992;5.896;2024-01-25T09:21:38;5.60;99.90
56240;DHT22;42154;51.992;5.896;2024-01-25T09:24:05;5.60;99.90
56240;DHT22;42154;51.992;5.896;2024-01-25T09:26:31;5.70;99.90
56240;DHT22;42154;51.992;5.896;2024-01-25T09:28:57;5.70;99.90
56240;DHT22;42154;51.992;5.896;2024-01-25T09:31:23;5.70;99.90
56240;DHT22;42154;51.992;5.896;2024-01-25T09:33:49;5.80;99.90
56240;DHT22;42154;51.992;5.896;2024-01-25T09:36:16;5.80;99.90
56240;DHT22;42154;51.992;5.896;2024-01-25T09:38:42;5.90;99.90
56240;DHT22;42154;51.992;5.896;2024-01-25T09:41:08;5.90;99.90
56240;DHT22;42154;51.992;5.896;2024-01-25T09:43:35;6.00;99.90
56240;DHT22;42154;51.992;5.896;2024-01-25T09:46:01;5.90;99.90
56240;DHT22;42154;51.992;5.896;2024-01-25T09:48:27;6.00;99.90
56240;DHT22;42154;51.992;5.896;2024-01-25T09:50:55;6.10;99.90
56240;DHT22;42154;51.992;5.896;2024-01-25T09:53:22;6.10;99.90
56240;DHT22;42154;51.992;5.896;2024-01-25T09:56:00;6.10;99.90
56240;DHT22;42154;51.992;5.896;2024-01-25T09:58:41;6.10;99.90
56240;DHT22;42154;51.992;5.896;2024-01-25T10:01:12;6.20;99.90
56240;DHT22;42154;51.992;5.896;2024-01-25T10:03:44;6.20;99.90
56240;DHT22;42154;51.992;5.896;2024-01-25T10:06:12;6.30;99.90
56240;DHT22;42154;51.992;5.896;2024-01-25T10:08:38;6.40;99.90
56240;DHT22;42154;51.992;5.896;2024-01-25T10:11:04;6.50;99.90
56240;DHT22;42154;51.992;5.896;2024-01-25T10:13:30;6.60;99.90
56240;DHT22;42154;51.992;5.896;2024-01-25T10:15:56;6.60;99.90
56240;DHT22;42154;51.992;5.896;2024-01-25T10:18:22;6.70;99.90
56240;DHT22;42154;51.992;5.896;2024-01-25T10:20:48;6.70;99.90
56240;DHT22;42154;51.992;5.896;2024-01-25T10:23:14;6.70;99.90
56240;DHT22;42154;51.992;5.896;2024-01-25T10:25:40;6.80;99.90
56240;DHT22;42154;51.992;5.896;2024-01-25T10:28:06;6.80;99.90
56240;DHT22;42154;51.992;5.896;2024-01-25T10:30:34;6.90;99.90
56240;DHT22;42154;51.992;5.896;2024-01-25T10:33:04;7.00;99.90
56240;DHT22;42154;51.992;5.896;2024-01-25T10:35:31;7.00;99.90
56240;DHT22;42154;51.992;5.896;2024-01-25T10:37:57;7.00;99.90
56240;DHT22;42154;51.992;5.896;2024-01-25T10:40:23;7.00;99.90
56240;DHT22;42154;51.992;5.896;2024-01-25T10:42:50;7.00;99.90
56240;DHT22;42154;51.992;5.896;2024-01-25T10:45:16;7.00;99.90
56240;DHT22;42154;51.992;5.896;2024-01-25T10:47:42;7.10;99.90
56240;DHT22;42154;51.992;5.896;2024-01-25T10:50:11;7.10;99.90
56240;DHT22;42154;51.992;5.896;2024-01-25T10:52:40;7.20;99.90
56240;DHT22;42154;51.992;5.896;2024-01-25T10:55:07;7.20;99.90
56240;DHT22;42154;51.992;5.896;2024-01-25T10:57:42;7.20;99.90
56240;DHT22;42154;51.992;5.896;2024-01-25T11:00:10;7.30;99.90
56240;DHT22;42154;51.992;5.896;2024-01-25T11:02:37;7.30;99.90
56240;DHT22;42154;51.992;5.896;2024-01-25T11:05:12;7.40;99.90
56240;DHT22;42154;51.992;5.896;2024-01-25T11:07:46;7.40;99.90
56240;DHT22;42154;51.992;5.896;2024-01-25T11:10:24;7.50;99.90
56240;DHT22;42154;51.992;5.896;2024-01-25T11:12:57;7.50;99.90
56240;DHT22;42154;51.992;5.896;2024-01-25T11:15:34;7.50;99.90
56240;DHT22;42154;51.992;5.896;2024-01-25T11:18:04;7.60;99.90
56240;DHT22;42154;51.992;5.896;2024-01-25T11:20:35;7.60;99.90
56240;DHT22;42154;51.992;5.896;2024-01-25T11:23:05;7.70;99.90
56240;DHT22;42154;51.992;5.896;2024-01-25T11:25:32;7.70;99.90
56240;DHT22;42154;51.992;5.896;2024-01-25T11:27:59;7.70;99.90
56240;DHT22;42154;51.992;5.896;2024-01-25T11:30:27;7.70;99.90
56240;DHT22;42154;51.992;5.896;2024-01-25T11:32:53;7.80;99.90
56240;DHT22;42154;51.992;5.896;2024-01-25T11:35:19;7.80;99.90
56240;DHT22;42154;51.992;5.896;2024-01-25T11:37:46;7.90;99.90
56240;DHT22;42154;51.992;5.896;2024-01-25T11:40:14;7.90;99.90
56240;DHT22;42154;51.992;5.896;2024-01-25T11:42:44;8.00;99.90
56240;DHT22;42154;51.992;5.896;2024-01-25T11:45:11;8.10;99.90
56240;DHT22;42154;51.992;5.896;2024-01-25T11:47:38;8.30;99.90
56240;DHT22;42154;51.992;5.896;2024-01-25T11:50:05;8.20;99.90
56240;DHT22;42154;51.992;5.896;2024-01-25T11:52:31;8.30;99.90
56240;DHT22;42154;51.992;5.896;2024-01-25T11:55:06;8.40;99.90
56240;DHT22;42154;51.992;5.896;2024-01-25T11:57:41;8.50;99.90
56240;DHT22;42154;51.992;5.896;2024-01-25T12:00:09;8.50;99.90
56240;DHT22;42154;51.992;5.896;2024-01-25T12:02:37;8.40;99.90
56240;DHT22;42154;51.992;5.896;2024-01-25T12:05:03;8.50;99.90
56240;DHT22;42154;51.992;5.896;2024-01-25T12:07:32;8.50;99.90
56240;DHT22;42154;51.992;5.896;2024-01-25T12:10:08;8.60;99.90
56240;DHT22;42154;51.992;5.896;2024-01-25T12:12:37;8.60;99.90
56240;DHT22;42154;51.992;5.896;2024-01-25T12:15:07;8.60;99.90
56240;DHT22;42154;51.992;5.896;2024-01-25T12:17:34;8.70;99.90
56240;DHT22;42154;51.992;5.896;2024-01-25T12:20:05;8.70;99.90
56240;DHT22;42154;51.992;5.896;2024-01-25T12:22:37;8.70;99.90
56240;DHT22;42154;51.992;5.896;2024-01-25T12:25:07;8.80;99.90
56240;DHT22;42154;51.992;5.896;2024-01-25T12:27:33;8.80;99.90
56240;DHT22;42154;51.992;5.896;2024-01-25T12:29:58;8.80;99.90
56240;DHT22;42154;51.992;5.896;2024-01-25T12:32:24;8.80;99.90
56240;DHT22;42154;51.992;5.896;2024-01-25T12:34:58;8.80;99.90
56240;DHT22;42154;51.992;5.896;2024-01-25T12:37:24;8.80;99.90
56240;DHT22;42154;51.992;5.896;2024-01-25T12:39:51;8.80;99.90
56240;DHT22;42154;51.992;5.896;2024-01-25T12:42:18;8.80;99.90
56240;DHT22;42154;51.992;5.896;2024-01-25T12:44:44;8.70;99.90
56240;DHT22;42154;51.992;5.896;2024-01-25T12:47:11;8.70;99.90
56240;DHT22;42154;51.992;5.896;2024-01-25T12:49:42;8.70;99.90
56240;DHT22;42154;51.992;5.896;2024-01-25T12:52:14;8.70;99.90
56240;DHT22;42154;51.992;5.896;2024-01-25T12:54:40;8.80;99.90
56240;DHT22;42154;51.992;5.896;2024-01-25T12:57:06;9.00;99.90
56240;DHT22;42154;51.992;5.896;2024-01-25T12:59:36;9.10;99.90
56240;DHT22;42154;51.992;5.896;2024-01-25T13:02:04;9.20;99.90
56240;DHT22;42154;51.992;5.896;2024-01-25T13:04:31;9.30;99.90
56240;DHT22;42154;51.992;5.896;2024-01-25T13:06:56;9.40;99.90
56240;DHT22;42154;51.992;5.896;2024-01-25T13:09:23;9.40;99.90
56240;DHT22;42154;51.992;5.896;2024-01-25T13:11:49;9.40;99.90
56240;DHT22;42154;51.992;5.896;2024-01-25T13:14:16;9.40;99.90
56240;DHT22;42154;51.992;5.896;2024-01-25T13:16:42;9.40;99.90
56240;DHT22;42154;51.992;5.896;2024-01-25T13:19:08;9.40;99.90
56240;DHT22;42154;51.992;5.896;2024-01-25T13:21:34;9.40;99.90
56240;DHT22;42154;51.992;5.896;2024-01-25T13:24:00;9.40;99.90
56240;DHT22;42154;51.992;5.896;2024-01-25T13:26:26;9.40;99.90
56240;DHT22;42154;51.992;5.896;2024-01-25T13:28:52;9.40;99.90
56240;DHT22;42154;51.992;5.896;2024-01-25T13:31:18;9.40;99.90
56240;DHT22;42154;51.992;5.896;2024-01-25T13:33:44;9.40;99.90
56240;DHT22;42154;51.992;5.896;2024-01-25T13:36:11;9.50;99.90
56240;DHT22;42154;51.992;5.896;2024-01-25T13:38:42;9.40;99.90
56240;DHT22;42154;51.992;5.896;2024-01-25T13:41:07;9.40;99.90
56240;DHT22;42154;51.992;5.896;2024-01-25T13:43:33;9.40;99.90
56240;DHT22;42154;51.992;5.896;2024-01-25T13:45:59;9.40;99.90
56240;DHT22;42154;51.992;5.896;2024-01-25T13:48:25;9.40;99.90
56240;DHT22;42154;51.992;5.896;2024-01-25T13:50:50;9.40;99.90
56240;DHT22;42154;51.992;5.896;2024-01-25T13:53:16;9.40;99.90
56240;DHT22;42154;51.992;5.896;2024-01-25T13:55:43;9.30;99.90
56240;DHT22;42154;51.992;5.896;2024-01-25T13:58:09;9.30;99.90
56240;DHT22;42154;51.992;5.896;2024-01-25T14:00:35;9.40;99.90
56240;DHT22;42154;51.992;5.896;2024-01-25T14:03:01;9.30;99.90
56240;DHT22;42154;51.992;5.896;2024-01-25T14:05:27;9.30;99.90
56240;DHT22;42154;51.992;5.896;2024-01-25T14:07:53;9.30;99.90
56240;DHT22;42154;51.992;5.896;2024-01-25T14:10:19;9.20;99.90
56240;DHT22;42154;51.992;5.896;2024-01-25T14:12:46;9.30;99.90
56240;DHT22;42154;51.992;5.896;2024-01-25T14:15:11;9.30;99.90
56240;DHT22;42154;51.992;5.896;2024-01-25T14:17:37;9.30;99.90
56240;DHT22;42154;51.992;5.896;2024-01-25T14:20:04;9.30;99.90
56240;DHT22;42154;51.992;5.896;2024-01-25T14:22:30;9.30;99.90
56240;DHT22;42154;51.992;5.896;2024-01-25T14:24:56;9.30;99.90
56240;DHT22;42154;51.992;5.896;2024-01-25T14:27:22;9.30;99.90
56240;DHT22;42154;51.992;5.896;2024-01-25T14:29:48;9.30;99.90
56240;DHT22;42154;51.992;5.896;2024-01-25T14:32:14;9.20;99.90
56240;DHT22;42154;51.992;5.896;2024-01-25T14:34:39;9.20;99.90
56240;DHT22;42154;51.992;5.896;2024-01-25T14:37:06;9.20;99.90
56240;DHT22;42154;51.992;5.896;2024-01-25T14:39:32;9.30;99.90
56240;DHT22;42154;51.992;5.896;2024-01-25T14:41:57;9.20;99.90
56240;DHT22;42154;51.992;5.896;2024-01-25T14:44:23;9.20;99.90
56240;DHT22;42154;51.992;5.896;2024-01-25T14:46:49;9.20;99.90
56240;DHT22;42154;51.992;5.896;2024-01-25T14:49:14;9.30;99.90
56240;DHT22;42154;51.992;5.896;2024-01-25T14:51:40;9.30;99.90
56240;DHT22;42154;51.992;5.896;2024-01-25T14:54:06;9.20;99.90
56240;DHT22;42154;51.992;5.896;2024-01-25T14:56:32;9.20;99.90
56240;DHT22;42154;51.992;5.896;2024-01-25T14:58:58;9.20;99.90
56240;DHT22;42154;51.992;5.896;2024-01-25T15:01:24;9.20;99.90
56240;DHT22;42154;51.992;5.896;2024-01-25T15:03:54;9.20;99.90
56240;DHT22;42154;51.992;5.896;2024-01-25T15:06:21;9.20;99.90
56240;DHT22;42154;51.992;5.896;2024-01-25T15:08:47;9.20;99.90
56240;DHT22;42154;51.992;5.896;2024-01-25T15:11:12;9.20;99.90
56240;DHT22;42154;51.992;5.896;2024-01-25T15:13:38;9.20;99.90
56240;DHT22;42154;51.992;5.896;2024-01-25T15:16:04;9.20;99.90
56240;DHT22;42154;51.992;5.896;2024-01-25T15:18:30;9.20;99.90
56240;DHT22;42154;51.992;5.896;2024-01-25T15:20:57;9.20;99.90
56240;DHT22;42154;51.992;5.896;2024-01-25T15:23:23;9.20;99.90
56240;DHT22;42154;51.992;5.896;2024-01-25T15:25:48;9.20;99.90
56240;DHT22;42154;51.992;5.896;2024-01-25T15:28:15;9.20;99.90
56240;DHT22;42154;51.992;5.896;2024-01-25T15:30:41;9.20;99.90
56240;DHT22;42154;51.992;5.896;2024-01-25T15:33:07;9.20;99.90
56240;DHT22;42154;51.992;5.896;2024-01-25T15:35:33;9.10;99.90
56240;DHT22;42154;51.992;5.896;2024-01-25T15:37:59;9.10;99.90
56240;DHT22;42154;51.992;5.896;2024-01-25T15:40:34;9.10;99.90